»·PEaware :: DAL97 KLAX-KTUS

DAL97 :: KLAX-KTUS

FLIGHT INFORMATION

Flight Status: Arrived
Operator:
Delta Air Lines
More flights by this operator :: More flights under this callsign
Pilot: Skye D. (10623)
Aircraft: BOEING 767-300
(B763)
More flights by this aircraft type
Origin: KLAX Los Angeles Intl
United States
Destination: KTUS Tucson Intl
United States
More flights between these airports :: More routes between these airports
Route: DOTSS2 CNERY BLH J50 GBN DINGO5
File this flight plan on PilotEdge
Remarks:
Altitude:
(Current/Filed)
37,000ft
Speed:
(Current/Filed)
467kts
Departed: 11-Feb-18 01:48 PM
Arrived: 11-Feb-18 02:51 PM
Distance/Time
Traveled:
391nm/1:02
Distance/Time
To Go:
Arrived

Flight Plot

Page will automatically refresh every two minutes.

Flight plan parsing failed; only flown route is shown


Map Options




Map Legend


Flown Route
Filed Route
Departure Airport
Arrival Airport
Navaid (VOR, NDB)
Fix

Horizontal Profiles

Position Reports

Time Latitude Longitude Heading Altitude Ground
Speed
11-Feb-18 13:26 33.941033 -118.405110 85 136ft 0kts
11-Feb-18 13:27 33.941033 -118.405110 85 136ft 0kts
11-Feb-18 13:28 33.941033 -118.405110 85 136ft 0kts
11-Feb-18 13:29 33.941033 -118.405110 85 136ft 0kts
11-Feb-18 13:30 33.941033 -118.405110 85 136ft 0kts
11-Feb-18 13:31 33.941033 -118.405110 85 136ft 0kts
11-Feb-18 13:32 33.941033 -118.405110 85 136ft 0kts
11-Feb-18 13:33 33.941033 -118.405110 85 136ft 0kts
11-Feb-18 13:34 33.941033 -118.405110 85 136ft 0kts
11-Feb-18 13:35 33.941033 -118.405110 85 136ft 0kts
11-Feb-18 13:36 33.941033 -118.405110 85 136ft 0kts
11-Feb-18 13:37 33.941033 -118.405110 85 136ft 0kts
11-Feb-18 13:38 33.941033 -118.405110 85 136ft 0kts
11-Feb-18 13:39 33.941031 -118.405230 99 136ft 2kts
11-Feb-18 13:40 33.941379 -118.405679 170 136ft 2kts
11-Feb-18 13:41 33.940926 -118.405602 173 136ft 7kts
11-Feb-18 13:42 33.940086 -118.405489 174 136ft 0kts
11-Feb-18 13:43 33.940086 -118.405489 174 136ft 0kts
11-Feb-18 13:44 33.940086 -118.405489 174 136ft 0kts
11-Feb-18 13:45 33.940086 -118.405489 174 136ft 0kts
11-Feb-18 13:46 33.940086 -118.405489 174 136ft 0kts
11-Feb-18 13:47 33.940086 -118.405489 174 136ft 0kts
11-Feb-18 13:48 33.938831 -118.405318 170 136ft 15kts
11-Feb-18 13:49 33.938498 -118.402663 82 136ft 25kts
11-Feb-18 13:50 33.939214 -118.396010 83 136ft 18kts
11-Feb-18 13:51 33.939904 -118.389136 82 136ft 23kts
11-Feb-18 13:52 33.940598 -118.382324 83 136ft 21kts
11-Feb-18 13:53 33.940704 -118.380858 99 136ft 3kts
11-Feb-18 13:54 33.939732 -118.381166 264 136ft 13kts
11-Feb-18 13:55 33.936631 -118.411347 263 946ft 158kts
11-Feb-18 13:56 33.926408 -118.466370 234 3065ft 187kts
11-Feb-18 13:57 33.893733 -118.516883 233 4885ft 232kts
11-Feb-18 13:58 33.837293 -118.557830 170 7366ft 283kts
11-Feb-18 13:59 33.761931 -118.537086 167 10556ft 300kts
11-Feb-18 14:00 33.687755 -118.485004 119 12147ft 369kts
11-Feb-18 14:01 33.658722 -118.380729 106 14871ft 387kts
11-Feb-18 14:01 33.648214 -118.290103 88 16763ft 399kts
11-Feb-18 14:03 33.647609 -118.148433 86 19079ft 432kts
11-Feb-18 14:03 33.648124 -118.044978 87 20929ft 446kts
11-Feb-18 14:05 33.647067 -117.896433 88 23281ft 463kts
11-Feb-18 14:06 33.634133 -117.751478 103 25153ft 483kts
11-Feb-18 14:06 33.605653 -117.631251 105 26605ft 496kts
11-Feb-18 14:07 33.566173 -117.475117 105 28303ft 512kts
11-Feb-18 14:08 33.529016 -117.320139 104 29889ft 524kts
11-Feb-18 14:09 33.507752 -117.158721 90 31443ft 526kts
11-Feb-18 14:10 33.503161 -116.987504 88 33096ft 527kts
11-Feb-18 14:11 33.500441 -116.823891 88 34438ft 527kts
11-Feb-18 14:12 33.497666 -116.652350 88 35621ft 528kts
11-Feb-18 14:13 33.494295 -116.486090 87 36450ft 529kts
11-Feb-18 14:14 33.491547 -116.315793 87 36940ft 532kts
11-Feb-18 14:16 33.489134 -116.140823 87 36930ft 531kts
11-Feb-18 14:17 33.506947 -115.970797 65 36928ft 516kts
11-Feb-18 14:18 33.553207 -115.808729 65 36933ft 516kts
11-Feb-18 14:19 33.600119 -115.646758 64 36934ft 515kts
11-Feb-18 14:20 33.630975 -115.478590 88 36913ft 530kts
11-Feb-18 14:21 33.618082 -115.303332 89 36963ft 531kts
11-Feb-18 14:22 33.611328 -115.127233 89 36965ft 529kts
11-Feb-18 14:23 33.604691 -114.952365 89 36969ft 529kts
11-Feb-18 14:24 33.597765 -114.775937 89 36971ft 529kts
11-Feb-18 14:25 33.582927 -114.600787 93 36975ft 530kts
11-Feb-18 14:26 33.566983 -114.425369 93 36976ft 529kts
11-Feb-18 14:27 33.551341 -114.251009 93 36966ft 530kts
11-Feb-18 14:28 33.535203 -114.076838 94 36935ft 528kts
11-Feb-18 14:29 33.518736 -113.903201 94 36936ft 528kts
11-Feb-18 14:30 33.501956 -113.728981 94 36938ft 528kts
11-Feb-18 14:31 33.484951 -113.555007 94 36932ft 526kts
11-Feb-18 14:32 33.462651 -113.382352 106 36922ft 528kts
11-Feb-18 14:33 33.384298 -113.237357 135 36926ft 525kts
11-Feb-18 14:34 33.287212 -113.109409 134 36606ft 522kts
11-Feb-18 14:35 33.192552 -112.983633 134 34228ft 506kts
11-Feb-18 14:36 33.099219 -112.860301 135 31670ft 504kts
11-Feb-18 14:37 33.005307 -112.737462 135 29348ft 502kts
11-Feb-18 14:38 32.929514 -112.600502 115 27106ft 494kts
11-Feb-18 14:39 32.873299 -112.455834 114 25177ft 475kts
11-Feb-18 14:40 32.819754 -112.317087 114 23887ft 457kts
11-Feb-18 14:41 32.766741 -112.179701 115 23603ft 458kts
11-Feb-18 14:42 32.714205 -112.044899 115 20547ft 431kts
11-Feb-18 14:43 32.665323 -111.920041 115 17662ft 406kts
11-Feb-18 14:44 32.618709 -111.801364 116 15646ft 395kts
11-Feb-18 14:45 32.573261 -111.686022 116 13833ft 382kts
11-Feb-18 14:46 32.520294 -111.582156 128 12136ft 363kts
11-Feb-18 14:47 32.480245 -111.478883 108 10826ft 308kts
11-Feb-18 14:48 32.458858 -111.389700 106 8275ft 276kts
11-Feb-18 14:49 32.431381 -111.308186 135 7463ft 267kts
11-Feb-18 14:50 32.383498 -111.252473 137 6572ft 263kts
11-Feb-18 14:51 32.339797 -111.201733 137 5951ft 241kts
11-Feb-18 14:52 32.294677 -111.149375 137 5965ft 228kts
11-Feb-18 14:53 32.254249 -111.101863 137 5957ft 198kts
11-Feb-18 14:54 32.216566 -111.057507 137 5232ft 196kts
11-Feb-18 14:55 32.181685 -111.016431 137 4297ft 164kts
11-Feb-18 14:56 32.151842 -110.981336 137 3431ft 160kts
11-Feb-18 14:57 32.121639 -110.945828 135 2663ft 154kts
11-Feb-18 14:58 32.107924 -110.929140 58 2654ft 9kts
11-Feb-18 14:59 32.108802 -110.928363 341 2654ft 4kts
11-Feb-18 15:00 32.112844 -110.933054 313 2654ft 33kts
11-Feb-18 15:01 32.117088 -110.938027 324 2654ft 10kts
11-Feb-18 15:02 32.118153 -110.936774 52 2654ft 4kts
11-Feb-18 15:03 32.118564 -110.936287 44 2654ft 0kts

Navigation Log

Ident Type
Flight plan parsing failed, navigation log unavailable